Latest Weather Observations for Adele Island

IDW60801

Issued at 4:33 pm WST Tuesday 22 October 2019 (issued every 10 minutes, with the page automatically refreshed every 10 minutes)

About weather observations | Map of weather stations | Latest weather observations for WA | Other Formats
Station Details ID: 200735 Name: ADELE ISLAND Lat: -15.51 Lon: 123.16 Height: 4.6 m
Data from the previous 72 hours. | See also: Recent months at Adele Island
Date/Time
WST
Temp
°C
App
Temp
°C
Dew
Point
°C
Rel
Hum
%
Delta-T
°C
Wind Press
QNH
hPa
Press
MSL
hPa
Rain since
9am
mm
Dir  Spd
km/h
Gust
km/h
Spd
kts
Gust
kts
22/04:30pm 31.2 - - - - NW 11 13 6 7 1008.8 1008.7 -
22/04:00pm 30.8 - - - - NNW 11 15 6 8 1008.7 1008.6 -
22/03:30pm 30.5 - - - - NW 11 15 6 8 1008.8 1008.7 -
22/03:00pm 31.1 - - - - NNW 13 17 7 9 1009.0 1008.9 -
22/02:30pm 30.7 - - - - NNW 13 17 7 9 1009.2 1009.1 -
22/02:00pm 30.5 - - - - NNW 13 17 7 9 1009.5 1009.4 -
22/01:30pm 30.7 - - - - N 13 15 7 8 1009.8 1009.7 -
22/01:00pm 31.1 - - - - N 11 15 6 8 1010.0 1009.9 -
22/12:30pm 31.8 - - - - N 11 15 6 8 1010.2 1010.1 -
22/12:00pm 31.3 - - - - NNW 9 13 5 7 1010.7 1010.6 -
22/11:30am 30.8 - - - - WNW 13 17 7 9 1011.1 1011.0 -
22/11:00am 30.5 - - - - WNW 13 19 7 10 1011.5 1011.4 -
22/10:30am 30.7 - - - - W 15 20 8 11 1011.7 1011.6 -
22/10:00am 30.0 - - - - W 13 19 7 10 1011.9 1011.8 -
22/09:30am 30.2 - - - - WSW 15 17 8 9 1012.1 1012.0 -
22/09:00am 29.1 - - - - WSW 13 19 7 10 1012.3 1012.2 -
22/08:30am 28.5 - - - - SW 15 20 8 11 1012.2 1012.1 -
22/08:00am 28.6 - - - - SW 17 20 9 11 1012.4 1012.3 -
22/07:30am 28.3 - - - - SW 17 24 9 13 1012.5 1012.4 -
22/07:00am 28.1 - - - - SSW 19 26 10 14 1012.4 1012.3 -
22/06:30am 27.8 - - - - SSW 20 30 11 16 1012.0 1011.9 -
22/06:00am 27.7 - - - - SSW 20 26 11 14 1011.7 1011.6 -
22/05:30am 27.3 - - - - S 15 19 8 10 1011.5 1011.4 -
22/05:00am 27.6 - - - - SSW 11 13 6 7 1010.9 1010.8 -
22/04:30am 28.0 - - - - SSW 11 13 6 7 1010.5 1010.4 -
22/04:00am 28.1 - - - - WSW 9 11 5 6 1010.3 1010.2 -
22/03:30am 28.0 - - - - WSW 11 13 6 7 1010.2 1010.1 -
22/03:00am 27.3 - - - - SE 11 13 6 7 1010.6 1010.5 -
22/02:30am 27.2 - - - - SE 13 13 7 7 1010.7 1010.6 -
22/02:00am 27.2 - - - - SE 11 17 6 9 1010.9 1010.8 -
22/01:30am 28.6 - - - - NW 13 15 7 8 1010.1 1010.0 -
22/01:00am 28.5 - - - - NW 15 17 8 9 1010.1 1010.0 -
22/12:30am 28.9 - - - - NW 20 24 11 13 1010.2 1010.1 -
22/12:00am 29.0 - - - - NW 22 26 12 14 1010.4 1010.3 -
 
Date/Time
WST
Temp
°C
App
Temp
°C
Dew
Point
°C
Rel
Hum
%
Delta-T
°C
Wind Press
QNH
hPa
Press
MSL
hPa
Rain since
9am
mm
Dir  Spd
km/h
Gust
km/h
Spd
kts
Gust
kts
21/11:30pm 28.8 - - - - NNW 20 26 11 14 1010.9 1010.8 -
21/11:00pm 28.7 - - - - NW 20 26 11 14 1011.2 1011.1 -
21/10:30pm 28.6 - - - - NW 20 26 11 14 1011.3 1011.2 -
21/10:00pm 28.4 - - - - NW 22 26 12 14 1011.5 1011.4 -
21/09:30pm 28.8 - - - - NW 20 24 11 13 1011.6 1011.5 -
21/09:00pm 28.5 - - - - NW 19 22 10 12 1011.6 1011.5 -
21/08:30pm 28.7 - - - - NW 19 20 10 11 1011.7 1011.6 -
21/08:00pm 28.3 - - - - NNW 20 24 11 13 1011.6 1011.5 -
21/07:30pm 28.4 - - - - NNW 20 24 11 13 1011.5 1011.4 -
21/07:00pm 28.4 - - - - NNW 20 24 11 13 1011.4 1011.3 -
21/06:30pm 28.3 - - - - NNW 17 20 9 11 1011.3 1011.2 -
21/06:00pm 28.4 - - - - N 17 19 9 10 1011.0 1010.9 -
21/05:30pm 28.5 - - - - N 19 20 10 11 1010.8 1010.7 -
21/05:00pm 28.5 - - - - N 19 20 10 11 1010.4 1010.3 -
21/04:30pm 28.6 - - - - N 19 20 10 11 1010.3 1010.2 -
21/04:00pm 28.8 - - - - N 19 22 10 12 1010.4 1010.3 -
21/03:30pm 29.1 - - - - N 17 20 9 11 1010.5 1010.4 -
21/03:00pm 28.9 - - - - N 15 17 8 9 1010.6 1010.5 -
21/02:30pm 29.2 - - - - NNE 15 17 8 9 1010.9 1010.8 -
21/02:00pm 29.2 - - - - NNE 13 15 7 8 1011.1 1011.0 -
21/01:30pm 30.1 - - - - NE 11 15 6 8 1011.4 1011.3 -
21/01:00pm 30.4 - - - - ENE 13 17 7 9 1011.7 1011.6 -
21/12:30pm 30.9 - - - - E 13 19 7 10 1012.0 1011.9 -
21/12:00pm 30.1 - - - - ESE 15 20 8 11 1012.4 1012.3 -
21/11:30am 30.5 - - - - ESE 15 20 8 11 1012.7 1012.6 -
21/11:00am 30.2 - - - - ESE 15 20 8 11 1013.2 1013.1 -
21/10:30am 30.5 - - - - SE 17 28 9 15 1013.5 1013.4 -
21/10:00am 29.2 - - - - SSE 20 32 11 17 1013.6 1013.5 -
21/09:30am 29.6 - - - - SW 20 26 11 14 1013.0 1012.9 -
21/09:00am 28.8 - - - - WSW 20 28 11 15 1012.7 1012.6 -
21/08:30am 28.8 - - - - WSW 26 33 14 18 1012.2 1012.1 -
21/08:00am 29.1 - - - - W 24 30 13 16 1011.6 1011.5 -
21/07:30am 28.4 - - - - W 24 30 13 16 1011.6 1011.5 -
21/07:00am 28.3 - - - - W 22 26 12 14 1011.9 1011.8 -
21/06:30am 28.2 - - - - W 19 20 10 11 1012.2 1012.1 -
21/06:00am 27.8 - - - - WNW 13 19 7 10 1012.6 1012.5 -
21/05:30am 27.8 - - - - WNW 13 17 7 9 1012.2 1012.1 -
21/05:00am 27.8 - - - - WNW 17 20 9 11 1011.9 1011.8 -
21/04:30am 27.9 - - - - WNW 19 20 10 11 1011.7 1011.6 -
21/04:00am 27.9 - - - - W 19 24 10 13 1011.3 1011.2 -
21/03:30am 27.9 - - - - W 22 26 12 14 1011.0 1010.9 -
21/03:00am 27.9 - - - - W 22 26 12 14 1011.0 1010.9 -
21/02:30am 28.0 - - - - W 22 28 12 15 1010.7 1010.6 -
21/02:00am 27.9 - - - - WNW 17 20 9 11 1011.5 1011.4 -
21/01:30am 28.1 - - - - WNW 19 22 10 12 1011.7 1011.6 -
21/01:00am 28.0 - - - - WNW 17 20 9 11 1011.8 1011.7 -
21/12:30am 28.0 - - - - WNW 17 22 9 12 1011.9 1011.8 -
21/12:00am 28.0 - - - - WNW 19 22 10 12 1012.1 1012.0 -
 
Date/Time
WST
Temp
°C
App
Temp
°C
Dew
Point
°C
Rel
Hum
%
Delta-T
°C
Wind Press
QNH
hPa
Press
MSL
hPa
Rain since
9am
mm
Dir  Spd
km/h
Gust
km/h
Spd
kts
Gust
kts
20/11:30pm 27.7 - - - - NW 17 20 9 11 1012.4 1012.3 -
20/11:00pm 27.8 - - - - NW 17 20 9 11 1012.7 1012.6 -
20/10:30pm 27.9 - - - - NW 19 20 10 11 1013.0 1012.9 -
20/10:00pm 27.7 - - - - NW 15 17 8 9 1013.0 1012.9 -
20/09:30pm 28.0 - - - - NW 17 19 9 10 1012.9 1012.8 -
20/09:00pm 27.8 - - - - NW 15 17 8 9 1012.8 1012.7 -
20/08:30pm 28.0 - - - - WNW 17 20 9 11 1012.4 1012.3 -
20/08:00pm 28.2 - - - - W 19 24 10 13 1011.8 1011.7 -
20/07:30pm 28.2 - - - - W 20 26 11 14 1011.3 1011.2 -
20/07:00pm 28.4 - - - - WSW 22 28 12 15 1011.0 1010.9 -
20/06:30pm 28.5 - - - - WSW 24 30 13 16 1010.6 1010.5 -
20/06:00pm 28.6 - - - - WSW 26 32 14 17 1010.3 1010.2 -
20/05:30pm 28.8 - - - - WSW 26 32 14 17 1009.8 1009.7 -
20/05:00pm 29.1 - - - - W 22 32 12 17 1009.8 1009.7 -
20/04:30pm 29.1 - - - - WSW 24 30 13 16 1009.8 1009.7 -
20/04:00pm 29.1 - - - - WSW 24 30 13 16 1009.9 1009.8 -
20/03:30pm 29.8 - - - - W 24 30 13 16 1010.0 1009.9 -
20/03:00pm 29.5 - - - - W 22 28 12 15 1010.0 1009.9 -
20/02:30pm 29.8 - - - - W 24 30 13 16 1010.2 1010.1 -
20/02:00pm 29.7 - - - - W 20 26 11 14 1010.6 1010.5 -
20/01:30pm 30.8 - - - - W 19 22 10 12 1010.9 1010.8 -
20/01:00pm 29.7 - - - - W 19 20 10 11 1011.4 1011.3 -
20/12:30pm 30.3 - - - - WSW 19 22 10 12 1011.7 1011.6 -
20/12:00pm 29.6 - - - - SW 22 26 12 14 1012.2 1012.1 -
20/11:30am 28.9 - - - - SW 20 24 11 13 1012.6 1012.5 -
20/11:00am 29.5 - - - - SW 19 22 10 12 1013.3 1013.2 -
20/10:30am 29.2 - - - - SSW 19 24 10 13 1013.8 1013.7 -
20/10:00am 30.3 - - - - SSW 19 24 10 13 1014.1 1014.0 -
20/09:30am 29.2 - - - - S 20 26 11 14 1014.4 1014.3 -
20/09:00am 28.9 - - - - S 20 26 11 14 1015.0 1014.9 -
20/08:30am 29.0 - - - - SSW 19 22 10 12 1014.8 1014.7 -
20/08:00am 28.1 - - - - SSW 19 22 10 12 1014.5 1014.4 -
20/07:30am 27.8 - - - - SSW 19 20 10 11 1014.6 1014.5 -
20/07:00am 27.5 - - - - S 19 24 10 13 1014.4 1014.3 -
20/06:30am 27.4 - - - - SSW 15 17 8 9 1014.3 1014.2 -
20/06:00am 26.7 - - - - S 13 15 7 8 1014.3 1014.2 -
20/05:30am 26.6 - - - - SSW 13 13 7 7 1014.2 1014.1 -
20/05:00am 26.5 - - - - S 11 15 6 8 1014.0 1013.9 -
20/04:30am 26.8 - - - - SSW 13 17 7 9 1013.4 1013.3 -
20/04:00am 27.1 - - - - SW 13 17 7 9 1013.0 1012.9 -
20/03:30am 27.1 - - - - SW 13 15 7 8 1012.8 1012.7 -
20/03:00am 27.3 - - - - WSW 13 15 7 8 1012.7 1012.6 -
20/02:30am 27.6 - - - - W 13 15 7 8 1012.8 1012.7 -
20/02:00am 27.7 - - - - WNW 11 13 6 7 1012.5 1012.4 -
20/01:30am 27.5 - - - - W 11 13 6 7 1012.7 1012.6 -
20/01:00am 27.8 - - - - NW 9 11 5 6 1013.0 1012.9 -
20/12:30am 27.7 - - - - NW 11 13 6 7 1013.1 1013.0 -
20/12:00am 27.8 - - - - WNW 13 15 7 8 1013.4 1013.3 -
 
Date/Time
WST
Temp
°C
App
Temp
°C
Dew
Point
°C
Rel
Hum
%
Delta-T
°C
Wind Press
QNH
hPa
Press
MSL
hPa
Rain since
9am
mm
Dir  Spd
km/h
Gust
km/h
Spd
kts
Gust
kts
19/11:30pm 27.6 - - - - WNW 13 17 7 9 1013.5 1013.4 -
19/11:00pm 27.5 - - - - WNW 13 15 7 8 1013.8 1013.7 -
19/10:30pm 27.5 - - - - WNW 13 15 7 8 1014.0 1013.9 -
19/10:00pm 27.6 - - - - WNW 13 15 7 8 1014.0 1013.9 -
19/09:30pm 27.6 - - - - WNW 13 15 7 8 1014.0 1013.9 -
19/09:00pm 27.5 - - - - W 15 17 8 9 1014.0 1013.9 -
19/08:30pm 27.6 - - - - W 15 17 8 9 1013.9 1013.8 -
19/08:00pm 27.7 - - - - W 15 17 8 9 1013.7 1013.6 -
19/07:30pm 27.9 - - - - W 13 15 7 8 1013.5 1013.4 -
19/07:00pm 28.2 - - - - W 13 17 7 9 1013.2 1013.1 -
19/06:30pm 28.2 - - - - W 13 15 7 8 1012.9 1012.8 -
19/06:00pm 28.2 - - - - WNW 11 13 6 7 1012.7 1012.6 -
19/05:30pm 28.3 - - - - WNW 9 13 5 7 1012.5 1012.4 -
19/05:00pm 28.6 - - - - NW 9 11 5 6 1012.5 1012.4 -

Other formats

Comma delimited format used in spreadsheet applications
http://www.bom.gov.au/fwo/IDW60801/IDW60801.94210.axf

JavaScript Object Notation format (JSON) in row-major order
http://www.bom.gov.au/fwo/IDW60801/IDW60801.94210.json

Data quality

Most of these data are generated automatically and are frequently updated. Quality checks on data are not normally performed. It is possible for incorrect values to appear. Refer to information at About Latest Weather Observations and please check the disclaimer before using these data.